Blackwell, Oklahoma
Current Conditions -  °F | °C
As of 5:35 AM on Saturday 22 Nov 2014 (Local Time) from KBKN Reporting Station
Moderate Fog Moderate Fog  
Wind Chill: 45°   Ceiling: 200
Heat Index: 45°   Visibility: 0.25mi
Dew Point: 45°   Wind: 3mph
Humidity: 100%   Direction: 10°N
Pressure: 29.97"   Gusts: NA
Location:  36.8°N, 97.28°W
Report Text: KBKN 221135Z AUTO 01003KT 1/4SM FG OVC002 07/07 A2997 RMK AO2
Loading
Personal Weather Stations






























Interactive Weather Map New forecast layout! Learn more

10-Day Weather Forecast

Advertisements
Track Severe Weather on mobile